TimeMST,TemperatureF,Dew PointF,Humidity,Sea Level PressureIn,VisibilityMPH,Wind Direction,Wind SpeedMPH,Gust SpeedMPH,PrecipitationIn,Events,Conditions,WindDirDegrees,DateUTC
12:39 AM,24.8,19.4,80,30.12,10.0,SW,17.3,-,N/A,,Overcast,230,2012-12-25 07:39:00
12:46 AM,24.8,19.4,80,30.12,10.0,SW,18.4,-,N/A,,Overcast,230,2012-12-25 07:46:00
12:53 AM,24.1,19.9,84,30.22,10.0,SW,17.3,-,N/A,,Overcast,230,2012-12-25 07:53:00
1:13 AM,23.0,19.4,86,30.13,10.0,SW,15.0,-,N/A,,Overcast,230,2012-12-25 08:13:00
1:53 AM,23.0,19.0,85,30.25,10.0,SW,15.0,-,N/A,,Overcast,230,2012-12-25 08:53:00
2:28 AM,21.2,17.6,86,30.15,10.0,SW,10.4,-,N/A,,Overcast,220,2012-12-25 09:28:00
2:53 AM,21.0,16.0,81,30.27,10.0,SW,10.4,-,N/A,,Partly Cloudy,230,2012-12-25 09:53:00
3:53 AM,19.0,15.1,85,30.28,10.0,SW,11.5,-,N/A,,Clear,230,2012-12-25 10:53:00
4:28 AM,21.2,17.6,86,30.17,10.0,SW,8.1,-,N/A,,Mostly Cloudy,220,2012-12-25 11:28:00
4:53 AM,21.9,16.0,78,30.27,10.0,SW,9.2,-,N/A,,Overcast,220,2012-12-25 11:53:00
5:48 AM,17.6,14.0,86,30.16,10.0,SSW,6.9,-,N/A,,Partly Cloudy,210,2012-12-25 12:48:00
5:53 AM,18.0,14.0,84,30.28,10.0,SSW,6.9,-,N/A,,Partly Cloudy,210,2012-12-25 12:53:00
6:53 AM,18.0,14.0,84,30.30,10.0,WSW,5.8,-,N/A,,Mostly Cloudy,250,2012-12-25 13:53:00
7:53 AM,19.0,15.1,85,30.30,10.0,WSW,5.8,-,N/A,,Mostly Cloudy,250,2012-12-25 14:53:00
8:53 AM,12.0,10.0,92,30.33,10.0,North,3.5,-,N/A,,Scattered Clouds,360,2012-12-25 15:53:00
9:53 AM,17.1,14.0,88,30.32,10.0,Calm,Calm,-,N/A,,Scattered Clouds,0,2012-12-25 16:53:00
10:53 AM,24.1,16.0,71,30.28,10.0,ENE,9.2,-,N/A,,Partly Cloudy,60,2012-12-25 17:53:00
11:53 AM,24.1,17.1,75,30.26,10.0,North,6.9,-,N/A,,Partly Cloudy,350,2012-12-25 18:53:00
12:53 PM,24.8,17.6,74,30.11,10.0,NNE,4.6,-,N/A,,Partly Cloudy,20,2012-12-25 19:53:00
1:53 PM,26.1,18.0,71,30.19,10.0,ENE,6.9,-,N/A,,Partly Cloudy,70,2012-12-25 20:53:00
2:53 PM,25.0,17.1,72,30.18,10.0,NE,5.8,-,N/A,,Partly Cloudy,40,2012-12-25 21:53:00
3:53 PM,26.1,17.1,69,30.16,10.0,NE,5.8,-,N/A,,Mostly Cloudy,40,2012-12-25 22:53:00
4:53 PM,24.1,17.1,75,30.15,10.0,North,5.8,-,N/A,,Mostly Cloudy,10,2012-12-25 23:53:00
5:53 PM,23.0,18.0,81,30.14,10.0,North,5.8,-,N/A,,Mostly Cloudy,350,2012-12-26 00:53:00
6:53 PM,26.1,16.0,66,30.10,10.0,NNE,4.6,-,N/A,,Overcast,20,2012-12-26 01:53:00
7:53 PM,26.1,16.0,66,30.07,10.0,NNW,3.5,-,N/A,,Overcast,330,2012-12-26 02:53:00
8:53 PM,23.0,15.1,72,30.08,10.0,North,5.8,-,N/A,,Overcast,360,2012-12-26 03:53:00
9:53 PM,24.1,18.0,77,30.04,10.0,NW,3.5,-,N/A,,Overcast,320,2012-12-26 04:53:00
10:53 PM,25.0,18.0,75,30.01,10.0,North,6.9,-,N/A,,Overcast,360,2012-12-26 05:53:00
11:53 PM,24.1,19.0,81,30.00,10.0,North,4.6,-,N/A,,Overcast,360,2012-12-26 06:53:00